Time;durP1;ratioP1;P1;durP2;ratioP2;P2;SDS_P1;SDS_P2;PMS_P1;PMS_P2;Temp;Humidity;BMP_temperature;BMP_pressure;BME280_temperature;BME280_humidity;BME280_pressure;Samples;Min_cycle;Max_cycle;Signal;HPM_P1;HPM_P2
2022/07/13 00:07:08;;;;;;;16.17;13.63;;;20.00;99.90;;;;;;5070809;23;20073;-65
2022/07/13 00:09:34;;;;;;;20.35;14.55;;;20.00;99.90;;;;;;4973992;28;20123;-66
2022/07/13 00:12:00;;;;;;;18.73;14.55;;;19.90;99.90;;;;;;4971328;28;20113;-66
2022/07/13 00:14:25;;;;;;;17.27;14.18;;;20.00;99.90;;;;;;4965865;28;20047;-66
2022/07/13 00:24:37;;;;;;;14.20;12.80;;;20.00;99.90;;;;;;5680908;23;20047;-63
2022/07/13 00:27:03;;;;;;;15.00;13.40;;;20.00;99.90;;;;;;4932383;29;20039;-65
2022/07/13 00:35:09;;;;;;;14.90;13.45;;;20.00;99.90;;;;;;5490981;23;20043;-65
2022/07/13 00:37:34;;;;;;;14.30;12.77;;;20.00;99.90;;;;;;4970847;28;20034;-65
2022/07/13 00:53:05;;;;;;;19.20;12.63;;;20.10;99.90;;;;;;5049057;23;20538;-66
2022/07/13 00:55:32;;;;;;;14.10;12.70;;;20.10;99.90;;;;;;4938544;28;20032;-66
2022/07/13 00:57:59;;;;;;;14.82;12.52;;;20.10;99.90;;;;;;4921454;29;20538;-66
2022/07/13 01:03:00;;;;;;;14.70;13.20;;;20.10;99.90;;;;;;5467814;23;20058;-66
2022/07/13 01:05:25;;;;;;;14.35;12.40;;;20.10;99.90;;;;;;4971227;28;20031;-65
2022/07/13 01:10:26;;;;;;;14.77;12.60;;;20.10;99.90;;;;;;5601060;23;20051;-66
2022/07/13 01:12:52;;;;;;;14.40;12.90;;;20.20;99.90;;;;;;4973880;28;20663;-66
2022/07/13 01:15:18;;;;;;;15.32;12.80;;;20.20;99.90;;;;;;4942310;29;20431;-66
2022/07/13 01:17:44;;;;;;;15.07;12.57;;;20.20;99.90;;;;;;4955182;28;20043;-65
2022/07/13 01:22:45;;;;;;;14.93;13.15;;;20.20;99.90;;;;;;5925749;23;20026;-66
2022/07/13 01:25:14;;;;;;;13.82;12.23;;;20.20;99.90;;;;;;4944833;28;20086;-67
2022/07/13 01:27:41;;;;;;;14.57;13.00;;;20.20;99.90;;;;;;4954853;29;20079;-66
2022/07/13 01:30:08;;;;;;;15.98;12.98;;;20.20;99.90;;;;;;4955301;29;20069;-67
2022/07/13 01:32:50;;;;;;;15.35;12.65;;;20.20;99.90;;;;;;4944327;28;20095;-66
2022/07/13 01:40:50;;;;;;;13.52;12.10;;;20.00;99.90;;;;;;5878670;23;20051;-66
2022/07/13 01:43:17;;;;;;;13.82;12.32;;;20.00;99.90;;;;;;4956782;28;20036;-66
2022/07/13 01:45:44;;;;;;;17.38;12.45;;;19.90;99.90;;;;;;4955583;28;20479;-66
2022/07/13 01:48:10;;;;;;;17.23;13.48;;;19.90;99.90;;;;;;4957913;28;20070;-66
2022/07/13 01:50:36;;;;;;;17.08;12.40;;;19.90;99.90;;;;;;4951477;28;20070;-66
2022/07/13 01:55:37;;;;;;;17.02;13.55;;;19.90;99.90;;;;;;5709016;23;20055;-67
2022/07/13 01:58:03;;;;;;;14.75;13.15;;;19.90;99.90;;;;;;4970996;28;20540;-66
2022/07/13 02:18:36;;;;;;;13.00;11.60;;;19.80;99.90;;;;;;5039301;23;20056;-66
2022/07/13 02:21:02;;;;;;;12.68;11.38;;;19.80;99.90;;;;;;4890775;29;20699;-65
2022/07/13 02:23:27;;;;;;;14.93;11.43;;;19.80;99.90;;;;;;4894001;29;20041;-66
2022/07/13 02:25:53;;;;;;;17.00;11.90;;;19.90;99.90;;;;;;5336908;23;20054;-66
2022/07/13 02:28:18;;;;;;;13.50;11.27;;;20.00;99.90;;;;;;4953495;28;20470;-66
2022/07/13 02:33:19;;;;;;;13.80;12.07;;;20.00;99.90;;;;;;5086878;23;20518;-66
2022/07/13 02:35:45;;;;;;;16.00;11.88;;;19.90;99.90;;;;;;4973296;28;20053;-66
2022/07/13 02:40:46;;;;;;;16.85;12.00;;;19.90;99.90;;;;;;5089451;23;20062;-66
2022/07/13 02:43:12;;;;;;;14.02;12.05;;;20.00;99.90;;;;;;4965265;28;20030;-66
2022/07/13 02:45:37;;;;;;;14.65;12.63;;;20.00;99.90;;;;;;4972677;28;20422;-66
2022/07/13 02:50:31;;;;;;;14.18;12.35;;;20.00;99.90;;;;;;4950900;28;20507;-66
2022/07/13 02:52:56;;;;;;;14.75;12.88;;;20.00;99.90;;;;;;4953409;28;20047;-67
2022/07/13 03:00:33;;;;;;;15.75;11.98;;;20.00;99.90;;;;;;5584889;23;20577;-66
2022/07/13 03:02:58;;;;;;;16.25;13.30;;;20.00;99.90;;;;;;4992052;28;20039;-66
2022/07/13 03:28:48;;;;;;;16.58;12.93;;;19.90;99.90;;;;;;5938643;23;19926;-69
2022/07/13 03:31:14;;;;;;;16.13;13.13;;;19.90;99.90;;;;;;4975565;28;20065;-66
2022/07/13 03:33:39;;;;;;;16.75;13.48;;;19.90;99.90;;;;;;4994171;28;20038;-66
2022/07/13 03:43:51;;;;;;;16.42;13.68;;;19.80;99.90;;;;;;5758688;23;20282;-66
2022/07/13 03:46:17;;;;;;;16.02;12.30;;;19.80;99.90;;;;;;4983754;28;20034;-66
2022/07/13 03:48:42;;;;;;;20.83;12.32;;;19.80;99.90;;;;;;4955107;28;20450;-66
2022/07/13 03:51:08;;;;;;;14.15;11.82;;;19.80;99.90;;;;;;4971414;28;20070;-66
2022/07/13 04:11:42;;;;;;;13.25;11.82;;;19.90;99.90;;;;;;6108541;23;20393;-66
2022/07/13 04:14:08;;;;;;;13.30;11.65;;;19.90;99.90;;;;;;4940644;28;20079;-66
2022/07/13 04:16:33;;;;;;;16.60;12.30;;;19.90;99.90;;;;;;4938358;29;20069;-66
2022/07/13 04:18:59;;;;;;;15.07;12.48;;;19.90;99.90;;;;;;4937183;29;20122;-66
2022/07/13 04:47:18;;;;;;;14.07;11.35;;;20.20;99.90;;;;;;5185938;23;20562;-67
2022/07/13 04:49:44;;;;;;;12.77;10.85;;;20.30;99.90;;;;;;4975388;28;20039;-66
2022/07/13 04:52:10;;;;;;;14.73;10.90;;;20.30;99.90;;;;;;4968133;28;20034;-67
2022/07/13 04:54:36;;;;;;;12.13;10.23;;;20.30;99.90;;;;;;4973868;28;20043;-66
2022/07/13 04:57:01;;;;;;;13.40;10.00;;;20.30;99.90;;;;;;4971832;28;20043;-66
2022/07/13 04:59:27;;;;;;;14.75;10.77;;;20.30;99.90;;;;;;4971800;28;20050;-66
2022/07/13 05:01:53;;;;;;;13.80;10.18;;;20.30;99.90;;;;;;4963019;28;20051;-67
2022/07/13 05:04:19;;;;;;;13.23;10.57;;;20.30;99.90;;;;;;4970099;28;20380;-67
2022/07/13 05:06:44;;;;;;;13.75;10.63;;;20.30;99.90;;;;;;4971243;28;20099;-67
2022/07/13 05:09:10;;;;;;;13.57;10.35;;;20.30;99.90;;;;;;4973439;28;20038;-67
2022/07/13 05:11:36;;;;;;;13.13;10.02;;;20.40;99.90;;;;;;4986593;28;20046;-66
2022/07/13 05:14:01;;;;;;;13.00;9.77;;;20.40;99.90;;;;;;4994464;28;20049;-66
2022/07/13 05:20:25;;;;;;;14.13;9.50;;;20.50;99.90;;;;;;5212955;23;20076;-67
2022/07/13 05:22:51;;;;;;;10.43;9.35;;;20.60;99.90;;;;;;4974038;28;20471;-65
2022/07/13 05:25:17;;;;;;;10.25;9.15;;;20.60;99.90;;;;;;5361728;23;20728;-68
2022/07/13 05:38:04;;;;;;;11.18;9.05;;;21.00;99.90;;;;;;5637671;23;20498;-67
2022/07/13 05:40:29;;;;;;;12.73;9.00;;;21.00;99.90;;;;;;4975552;28;20056;-66
2022/07/13 05:42:55;;;;;;;13.45;9.15;;;21.10;99.90;;;;;;4982470;28;20067;-66
2022/07/13 05:45:21;;;;;;;9.82;8.40;;;21.10;99.90;;;;;;4993900;28;20054;-67
2022/07/13 05:47:46;;;;;;;9.77;8.38;;;21.20;99.90;;;;;;4983895;28;20034;-66
2022/07/13 06:32:43;;;;;;;8.05;6.35;;;22.40;99.90;;;;;;5868780;23;20348;-67
2022/07/13 06:35:09;;;;;;;6.65;5.95;;;22.50;99.90;;;;;;4948337;28;20744;-66
2022/07/13 06:37:34;;;;;;;7.22;6.30;;;22.60;99.90;;;;;;4953819;29;20039;-67
2022/07/13 06:54:12;;;;;;;7.53;5.72;;;22.80;99.90;;;;;;5326842;23;20062;-66
2022/07/13 06:56:38;;;;;;;7.97;5.90;;;22.80;99.90;;;;;;4963457;28;20043;-65
2022/07/13 06:59:04;;;;;;;11.93;5.93;;;22.80;99.90;;;;;;4954633;28;20031;-66
2022/07/13 07:01:29;;;;;;;7.75;6.30;;;22.90;99.90;;;;;;4951179;28;20080;-66
2022/07/13 07:03:55;;;;;;;6.75;6.00;;;22.90;99.90;;;;;;4958570;28;20039;-66
2022/07/13 07:07:12;;;;;;;8.00;6.10;;;22.80;99.90;;;;;;4963465;28;20024;-66
2022/07/13 07:16:32;;;;;;;10.45;6.13;;;23.20;99.90;;;;;;5215269;23;20418;-67
2022/07/13 07:18:57;;;;;;;8.63;6.55;;;23.20;99.90;;;;;;4985525;28;20061;-67
2022/07/13 07:32:51;;;;;;;8.65;7.18;;;23.30;99.90;;;;;;5258767;23;20053;-66
2022/07/13 07:35:16;;;;;;;10.02;7.95;;;23.30;99.90;;;;;;4999426;28;20045;-66
2022/07/13 07:37:43;;;;;;;10.65;6.75;;;23.40;99.90;;;;;;4992965;28;20038;-66
2022/07/13 07:47:55;;;;;;;14.07;8.30;;;23.70;99.90;;;;;;5197582;23;20110;-66
2022/07/13 08:08:28;;;;;;;11.57;8.40;;;24.20;99.90;;;;;;5853285;23;20084;-66
2022/07/13 08:10:54;;;;;;;13.75;8.90;;;24.20;99.90;;;;;;5004941;28;20130;-66
2022/07/13 08:13:20;;;;;;;11.50;8.65;;;24.10;99.90;;;;;;5003713;28;20025;-66
2022/07/13 08:15:46;;;;;;;11.77;8.73;;;24.10;99.90;;;;;;4994879;28;20041;-66
2022/07/13 08:18:11;;;;;;;13.43;8.40;;;24.20;99.90;;;;;;4993345;28;20562;-66
2022/07/13 08:20:37;;;;;;;11.68;7.88;;;24.30;99.90;;;;;;4985164;28;20049;-66
2022/07/13 08:23:50;;;;;;;11.73;8.02;;;24.40;99.90;;;;;;5005548;28;20561;-66
2022/07/13 08:28:24;;;;;;;11.50;8.75;;;24.40;99.90;;;;;;5678468;23;20440;-67
2022/07/13 08:46:26;;;;;;;12.15;9.32;;;24.80;99.90;;;;;;5365169;23;20111;-68
2022/07/13 08:48:54;;;;;;;13.65;8.98;;;24.80;99.90;;;;;;4996561;28;20034;-67
2022/07/13 08:51:20;;;;;;;11.13;9.00;;;24.90;99.90;;;;;;5008066;28;20709;-67
2022/07/13 08:53:47;;;;;;;11.27;8.55;;;25.00;99.90;;;;;;5003755;28;20042;-66
2022/07/13 08:56:13;;;;;;;13.32;9.00;;;25.00;99.90;;;;;;5009448;28;20042;-66
2022/07/13 09:30:49;;;;;;;13.95;9.80;;;25.90;99.90;;;;;;5287708;23;20475;-68
2022/07/13 09:33:34;;;;;;;10.77;8.80;;;25.80;99.90;;;;;;4948825;29;20046;-67
2022/07/13 09:36:09;;;;;;;13.68;9.43;;;25.90;99.90;;;;;;4943297;28;20035;-67
2022/07/13 09:38:37;;;;;;;12.27;8.80;;;26.00;99.90;;;;;;4947072;29;20517;-67
2022/07/13 09:41:21;;;;;;;13.27;8.63;;;26.00;99.90;;;;;;4954681;29;20047;-67
2022/07/13 09:46:28;;;;;;;9.60;7.93;;;26.10;99.90;;;;;;6058581;23;20038;-66
2022/07/13 09:48:54;;;;;;;12.82;8.57;;;26.20;99.90;;;;;;4959170;28;20130;-67
2022/07/13 09:51:26;;;;;;;11.45;6.55;;;26.30;99.90;;;;;;4961437;28;20035;-67
2022/07/13 09:53:55;;;;;;;10.85;7.68;;;26.40;99.90;;;;;;4961441;28;20039;-66
2022/07/13 10:04:08;;;;;;;10.48;7.68;;;26.60;99.90;;;;;;6002254;23;20066;-65
2022/07/13 10:06:34;;;;;;;11.75;6.97;;;26.60;99.90;;;;;;4938019;29;20087;-64
2022/07/13 10:09:00;;;;;;;9.63;6.20;;;26.70;99.90;;;;;;4937042;29;20039;-64
2022/07/13 10:11:26;;;;;;;8.63;6.03;;;26.60;99.80;;;;;;4929085;29;20046;-64
2022/07/13 10:13:52;;;;;;;11.52;5.60;;;26.70;99.90;;;;;;4942056;29;20471;-65
2022/07/13 10:34:54;;;;;;;6.70;5.40;;;27.00;99.10;;;;;;5754351;23;20054;-65
2022/07/13 10:37:20;;;;;;;7.78;5.50;;;27.10;97.60;;;;;;4962166;28;20558;-66
2022/07/13 10:40:08;;;;;;;10.93;5.20;;;27.00;98.70;;;;;;4955130;28;20496;-66
2022/07/13 10:42:53;;;;;;;8.25;4.63;;;26.90;97.10;;;;;;4955794;28;20047;-66
2022/07/13 10:48:48;;;;;;;6.75;4.47;;;27.30;98.30;;;;;;4963045;29;20051;-66
2022/07/13 10:51:18;;;;;;;7.20;4.72;;;27.50;97.20;;;;;;4957120;28;20051;-66
2022/07/13 10:53:50;;;;;;;7.32;4.53;;;27.70;97.00;;;;;;4963357;28;20410;-66
2022/07/13 11:51:48;;;;;;;8.15;3.47;;;28.40;91.00;;;;;;5063475;23;20051;-67
2022/07/13 11:54:19;;;;;;;5.97;3.83;;;28.70;91.70;;;;;;4915501;29;20035;-67
2022/07/13 11:56:50;;;;;;;8.27;3.47;;;28.40;91.80;;;;;;4933263;29;20058;-67
2022/07/13 11:59:42;;;;;;;5.85;3.50;;;28.20;92.80;;;;;;4929107;29;20765;-67
2022/07/13 12:02:11;;;;;;;3.88;3.20;;;28.00;91.50;;;;;;4898731;29;20047;-67
2022/07/13 12:49:00;;;;;;;4.07;3.00;;;28.20;82.20;;;;;;5027227;23;20147;-68
2022/07/13 12:51:50;;;;;;;5.38;3.13;;;28.50;84.80;;;;;;4961418;28;20043;-71
2022/07/13 12:54:17;;;;;;;4.85;3.15;;;28.80;82.30;;;;;;4960016;28;20085;-67
2022/07/13 12:56:51;;;;;;;4.90;3.10;;;28.90;84.30;;;;;;4968228;28;20049;-67
2022/07/13 13:05:33;;;;;;;3.28;2.90;;;28.70;83.00;;;;;;5500943;23;20046;-65
2022/07/13 13:07:58;;;;;;;6.82;3.47;;;28.60;84.30;;;;;;5013746;28;20087;-67
2022/07/13 13:10:24;;;;;;;5.40;3.55;;;28.20;86.30;;;;;;5013758;28;20044;-64
2022/07/13 13:12:50;;;;;;;5.60;3.38;;;28.20;86.00;;;;;;5002912;28;20509;-66
2022/07/13 13:23:51;;;;;;;4.82;3.47;;;29.00;88.50;;;;;;5266969;23;20056;-67
2022/07/13 13:26:17;;;;;;;5.05;3.22;;;28.80;89.60;;;;;;4909145;29;20036;-65
2022/07/13 13:54:45;;;;;;;4.93;3.78;;;28.80;90.40;;;;;;5438345;23;20047;-66
2022/07/13 13:57:11;;;;;;;6.18;3.50;;;28.80;91.60;;;;;;4954626;29;20035;-67
2022/07/13 13:59:36;;;;;;;5.20;3.70;;;28.70;91.70;;;;;;4954176;28;20054;-67
2022/07/13 14:02:02;;;;;;;4.68;3.53;;;28.50;91.30;;;;;;4951445;28;20039;-66
2022/07/13 14:04:29;;;;;;;6.72;4.30;;;28.30;91.90;;;;;;4952382;28;20263;-66
2022/07/13 14:15:31;;;;;;;6.85;3.92;;;27.50;95.00;;;;;;5645327;23;20054;-66
2022/07/13 14:17:57;;;;;;;5.53;3.65;;;27.80;94.20;;;;;;4986634;28;20376;-66
2022/07/13 14:20:24;;;;;;;6.35;3.83;;;27.50;94.50;;;;;;4990209;28;20046;-66
2022/07/13 14:22:50;;;;;;;4.47;3.88;;;27.10;94.50;;;;;;4991952;28;20089;-66
2022/07/13 14:28:31;;;;;;;5.13;3.90;;;28.00;94.70;;;;;;5647910;23;20056;-66
2022/07/13 14:30:57;;;;;;;6.05;3.88;;;28.50;93.90;;;;;;4933350;29;20500;-68
2022/07/13 14:33:23;;;;;;;7.72;4.00;;;28.90;93.50;;;;;;4933533;29;20046;-68
2022/07/13 14:35:48;;;;;;;6.45;3.80;;;29.40;92.70;;;;;;4941601;28;20087;-68
2022/07/13 14:38:14;;;;;;;6.43;3.45;;;29.30;91.60;;;;;;4953768;29;20038;-69
2022/07/13 14:40:42;;;;;;;5.53;3.50;;;29.10;91.40;;;;;;4936278;29;20047;-68
2022/07/13 14:43:08;;;;;;;5.47;3.60;;;29.30;91.80;;;;;;4969401;23;20088;-65
2022/07/13 14:45:34;;;;;;;6.60;3.35;;;29.60;90.20;;;;;;5009973;28;20371;-65
2022/07/13 14:48:03;;;;;;;3.90;3.30;;;29.30;91.10;;;;;;5006900;28;20043;-65
2022/07/13 14:50:29;;;;;;;5.07;3.30;;;28.80;91.60;;;;;;4998160;28;20042;-64
2022/07/13 14:52:56;;;;;;;8.30;3.22;;;28.30;92.60;;;;;;4992228;28;20047;-65
2022/07/13 14:55:22;;;;;;;6.68;3.60;;;28.60;93.90;;;;;;5003696;28;20049;-65
2022/07/13 14:57:47;;;;;;;6.90;3.63;;;28.20;92.10;;;;;;5011458;28;20046;-65
2022/07/13 15:00:13;;;;;;;6.32;3.70;;;27.70;93.00;;;;;;4997180;28;20034;-65
2022/07/13 15:02:39;;;;;;;5.53;3.30;;;27.20;93.80;;;;;;5003193;28;20044;-65
2022/07/13 15:05:11;;;;;;;4.72;3.30;;;26.80;94.20;;;;;;5011791;28;20498;-64
2022/07/13 15:07:38;;;;;;;4.00;3.00;;;26.70;94.20;;;;;;4986769;28;20057;-64
2022/07/13 15:10:04;;;;;;;7.43;3.25;;;27.10;93.40;;;;;;4998833;28;20044;-64
2022/07/13 15:12:30;;;;;;;6.70;3.30;;;27.50;93.60;;;;;;4982150;28;20050;-64
2022/07/13 15:14:56;;;;;;;5.30;3.67;;;27.20;93.20;;;;;;4996859;28;20029;-64
2022/07/13 15:17:21;;;;;;;5.10;3.33;;;26.80;93.60;;;;;;5005338;28;20037;-64
2022/07/13 15:19:47;;;;;;;6.88;3.33;;;26.60;94.00;;;;;;4997531;28;20035;-65
2022/07/13 15:22:12;;;;;;;5.45;3.30;;;27.00;94.80;;;;;;5010836;28;20042;-63
2022/07/13 15:24:38;;;;;;;6.20;3.55;;;27.50;93.20;;;;;;5000242;28;20125;-65
2022/07/13 15:27:03;;;;;;;5.30;3.65;;;27.70;92.80;;;;;;4997025;28;20041;-65
2022/07/13 15:29:29;;;;;;;6.32;3.55;;;27.30;93.10;;;;;;5010094;28;20417;-65
2022/07/13 15:31:56;;;;;;;7.90;3.85;;;26.60;94.40;;;;;;5011207;28;20519;-65
2022/07/13 15:34:22;;;;;;;8.55;3.85;;;26.10;95.10;;;;;;4995316;28;20030;-65
2022/07/13 15:36:48;;;;;;;10.98;3.90;;;25.60;95.70;;;;;;5009320;28;20477;-65
2022/07/13 15:39:13;;;;;;;6.68;3.90;;;25.40;96.50;;;;;;5009690;28;20129;-65
2022/07/13 15:41:39;;;;;;;4.68;3.72;;;25.50;97.10;;;;;;4983673;28;20061;-64
2022/07/13 15:44:05;;;;;;;5.60;4.00;;;25.60;97.00;;;;;;4987468;28;20767;-64
2022/07/13 15:46:35;;;;;;;9.13;3.95;;;25.60;97.00;;;;;;5008424;28;20029;-65
2022/07/13 15:49:03;;;;;;;10.18;4.00;;;25.40;97.30;;;;;;5008208;28;20045;-64
2022/07/13 15:51:30;;;;;;;8.70;4.07;;;25.20;97.40;;;;;;4975972;28;20081;-65
2022/07/13 15:53:56;;;;;;;8.30;4.20;;;25.10;97.40;;;;;;4998337;28;20152;-65
2022/07/13 15:56:24;;;;;;;8.70;3.90;;;25.10;97.70;;;;;;5008080;28;20042;-65
2022/07/13 15:58:50;;;;;;;6.50;3.80;;;25.00;97.60;;;;;;4984419;28;20628;-64
2022/07/13 16:01:16;;;;;;;7.47;3.58;;;25.00;98.20;;;;;;4985744;28;20039;-65
2022/07/13 16:03:41;;;;;;;5.70;3.72;;;25.60;97.70;;;;;;4996557;28;20053;-64
2022/07/13 16:06:07;;;;;;;4.93;3.40;;;26.30;96.80;;;;;;5008025;28;20041;-64
2022/07/13 16:08:32;;;;;;;6.35;3.55;;;27.00;95.30;;;;;;5007758;28;20048;-65
2022/07/13 16:10:58;;;;;;;6.18;3.55;;;26.90;94.50;;;;;;4982995;28;20045;-65
2022/07/13 16:13:24;;;;;;;9.00;3.47;;;26.60;94.70;;;;;;5003756;28;20037;-64
2022/07/13 16:15:50;;;;;;;6.68;3.40;;;27.00;94.50;;;;;;4984006;28;20112;-64
2022/07/13 16:18:16;;;;;;;8.23;3.40;;;27.40;93.30;;;;;;4979019;28;20094;-65
2022/07/13 16:20:41;;;;;;;8.35;3.58;;;27.90;92.80;;;;;;4988943;28;20069;-65
2022/07/13 16:23:07;;;;;;;8.27;3.30;;;28.30;92.20;;;;;;5007207;28;20516;-66
2022/07/13 16:25:33;;;;;;;6.28;3.17;;;28.20;90.60;;;;;;5007570;28;20042;-65
2022/07/13 16:27:59;;;;;;;5.60;2.85;;;28.50;90.40;;;;;;4995844;28;20074;-65
2022/07/13 16:30:25;;;;;;;6.63;2.80;;;28.70;89.80;;;;;;4999668;28;20138;-65
2022/07/13 16:32:50;;;;;;;7.45;3.00;;;28.70;86.60;;;;;;4977081;28;20045;-65
2022/07/13 16:35:16;;;;;;;7.25;2.70;;;28.40;89.20;;;;;;4988850;28;20041;-64
2022/07/13 16:37:42;;;;;;;11.82;3.40;;;28.20;90.20;;;;;;4972838;28;20070;-64
2022/07/13 16:40:08;;;;;;;8.73;2.92;;;27.60;90.50;;;;;;4996325;28;20609;-64
2022/07/13 16:42:33;;;;;;;5.45;2.88;;;27.20;90.90;;;;;;4992410;28;20105;-64
2022/07/13 16:44:59;;;;;;;5.80;3.08;;;27.30;91.90;;;;;;4994830;28;20530;-64
2022/07/13 16:47:25;;;;;;;8.25;3.05;;;27.40;91.80;;;;;;5000378;28;20513;-66
2022/07/13 16:49:52;;;;;;;7.05;2.97;;;27.90;91.70;;;;;;5001750;28;20030;-64
2022/07/13 16:52:20;;;;;;;7.20;2.88;;;28.50;90.80;;;;;;5011906;28;20561;-65
2022/07/13 16:54:47;;;;;;;7.20;2.92;;;29.00;90.50;;;;;;4997436;28;20030;-64
2022/07/13 16:57:13;;;;;;;9.73;3.10;;;29.20;88.10;;;;;;4996689;28;20038;-64
2022/07/13 16:59:38;;;;;;;6.70;2.83;;;29.10;86.30;;;;;;5014030;28;20034;-65
2022/07/13 17:02:04;;;;;;;8.23;2.83;;;29.00;84.60;;;;;;4996571;28;20050;-65
2022/07/13 17:04:30;;;;;;;6.65;2.72;;;29.10;84.10;;;;;;4984125;28;20197;-65
2022/07/13 17:06:57;;;;;;;7.85;2.72;;;28.60;83.10;;;;;;5000400;28;20299;-63
2022/07/13 17:09:23;;;;;;;6.53;2.55;;;27.80;85.40;;;;;;5001680;28;20054;-64
2022/07/13 17:11:49;;;;;;;7.53;2.97;;;27.00;87.30;;;;;;5010427;28;20034;-64
2022/07/13 17:14:15;;;;;;;7.50;2.42;;;26.40;89.90;;;;;;4994314;28;20414;-64
2022/07/13 17:16:41;;;;;;;8.85;2.72;;;25.90;91.60;;;;;;4998079;28;20423;-66
2022/07/13 17:19:10;;;;;;;8.65;2.60;;;25.70;92.90;;;;;;5010487;28;20044;-66
2022/07/13 17:21:37;;;;;;;9.68;2.83;;;25.50;93.20;;;;;;4995038;28;20395;-66
2022/07/13 17:24:04;;;;;;;7.45;2.47;;;25.40;93.50;;;;;;4988584;28;20033;-66
2022/07/13 17:26:30;;;;;;;10.80;2.97;;;25.50;93.10;;;;;;5005379;28;20157;-66
2022/07/13 17:28:55;;;;;;;9.07;2.70;;;25.70;92.80;;;;;;4990084;28;20120;-67
2022/07/13 17:31:22;;;;;;;8.68;2.63;;;25.80;93.10;;;;;;4999971;28;20040;-66
2022/07/13 17:33:48;;;;;;;11.30;3.05;;;26.00;92.80;;;;;;5010132;28;20049;-66
2022/07/13 17:36:14;;;;;;;7.68;2.63;;;26.30;92.70;;;;;;4996080;28;20070;-66
2022/07/13 17:38:40;;;;;;;11.95;2.90;;;26.20;92.10;;;;;;4991285;28;20113;-67
2022/07/13 17:41:06;;;;;;;12.52;2.83;;;26.30;91.90;;;;;;5006911;28;20123;-67
2022/07/13 17:43:31;;;;;;;13.30;3.40;;;26.10;91.80;;;;;;5001422;28;20469;-66
2022/07/13 17:45:57;;;;;;;10.73;2.50;;;25.80;92.10;;;;;;4993832;28;20042;-66
2022/07/13 17:48:23;;;;;;;11.13;2.75;;;25.40;92.40;;;;;;4989286;28;20122;-66
2022/07/13 17:50:49;;;;;;;11.82;2.80;;;25.00;92.90;;;;;;4999811;28;20128;-66
2022/07/13 17:53:16;;;;;;;7.80;2.47;;;24.70;93.70;;;;;;5003075;28;20486;-67
2022/07/13 17:55:41;;;;;;;13.75;2.70;;;24.20;93.90;;;;;;4989181;28;20139;-66
2022/07/13 17:58:07;;;;;;;12.07;2.40;;;24.00;94.50;;;;;;5006079;28;20061;-65
2022/07/13 18:00:33;;;;;;;10.80;2.50;;;23.60;94.80;;;;;;4995548;28;20647;-66
2022/07/13 18:02:59;;;;;;;10.35;2.50;;;23.50;95.10;;;;;;4994191;28;20026;-66
2022/07/13 18:05:25;;;;;;;11.68;2.83;;;23.30;95.40;;;;;;5002420;28;20038;-66
2022/07/13 18:07:50;;;;;;;9.88;2.80;;;23.00;95.90;;;;;;4990665;28;20034;-66
2022/07/13 18:10:17;;;;;;;10.63;2.67;;;22.90;96.00;;;;;;5002802;28;20045;-66
2022/07/13 18:12:43;;;;;;;10.98;3.35;;;22.70;96.40;;;;;;4983960;28;20026;-66
2022/07/13 18:15:09;;;;;;;7.47;2.55;;;22.60;96.50;;;;;;4997563;28;20421;-66
2022/07/13 18:17:35;;;;;;;9.85;2.35;;;22.50;97.00;;;;;;5000722;28;20491;-65
2022/07/13 18:20:19;;;;;;;11.48;2.63;;;22.30;97.20;;;;;;4985215;28;20131;-66
2022/07/13 18:22:45;;;;;;;15.30;3.20;;;22.20;97.50;;;;;;4994204;28;20560;-66
2022/07/13 18:25:11;;;;;;;9.10;2.58;;;22.00;97.60;;;;;;4996045;28;20406;-66
2022/07/13 18:27:38;;;;;;;11.25;2.53;;;21.90;97.80;;;;;;4998005;28;20061;-66
2022/07/13 18:30:07;;;;;;;9.07;2.38;;;21.80;98.80;;;;;;4996833;28;20034;-66
2022/07/13 18:32:33;;;;;;;11.15;2.35;;;21.70;98.80;;;;;;5002764;28;20069;-66
2022/07/13 18:34:59;;;;;;;12.00;3.00;;;21.60;99.50;;;;;;4992783;28;20401;-66
2022/07/13 18:37:24;;;;;;;12.55;2.97;;;21.40;99.20;;;;;;4990250;28;20053;-66
2022/07/13 18:39:50;;;;;;;15.05;3.03;;;21.20;99.70;;;;;;5008101;28;20052;-66
2022/07/13 18:42:16;;;;;;;14.20;3.28;;;21.00;99.70;;;;;;5007820;28;20108;-66
2022/07/13 18:44:41;;;;;;;14.45;3.03;;;20.90;99.90;;;;;;4990364;28;20383;-66
2022/07/13 18:47:07;;;;;;;11.02;2.63;;;20.80;99.90;;;;;;4996959;28;20045;-66
2022/07/13 18:49:33;;;;;;;13.27;3.25;;;21.00;99.90;;;;;;5008953;28;20038;-66
2022/07/13 18:51:59;;;;;;;12.52;3.05;;;21.10;99.90;;;;;;4993105;28;20038;-66
2022/07/13 18:54:27;;;;;;;20.30;3.83;;;21.10;99.90;;;;;;4972055;28;20051;-67
2022/07/13 18:56:54;;;;;;;11.07;2.72;;;21.00;99.90;;;;;;4992578;28;20038;-66
2022/07/13 18:59:23;;;;;;;10.98;2.70;;;20.90;99.90;;;;;;4983628;28;20030;-66
2022/07/13 19:01:49;;;;;;;14.30;2.97;;;20.80;99.90;;;;;;4980119;28;20088;-67
2022/07/13 19:04:14;;;;;;;12.45;3.03;;;20.60;99.90;;;;;;4987559;28;20410;-67
2022/07/13 19:06:40;;;;;;;11.60;2.90;;;20.60;99.90;;;;;;4991371;28;20030;-66
2022/07/13 19:09:06;;;;;;;8.90;2.92;;;20.50;99.90;;;;;;4981634;28;20515;-66
2022/07/13 19:11:32;;;;;;;13.35;3.13;;;20.50;99.90;;;;;;4984696;28;20061;-66
2022/07/13 19:13:59;;;;;;;11.80;2.97;;;20.50;99.90;;;;;;4992887;28;20111;-66
2022/07/13 19:16:28;;;;;;;15.75;3.20;;;20.40;99.90;;;;;;4986770;28;20507;-66
2022/07/13 19:18:54;;;;;;;16.02;2.78;;;20.30;99.90;;;;;;4986489;28;20034;-67
2022/07/13 19:21:20;;;;;;;12.50;2.90;;;20.30;99.90;;;;;;4989329;28;20033;-66
2022/07/13 19:23:46;;;;;;;16.73;3.13;;;20.20;99.90;;;;;;4985683;28;20042;-66
2022/07/13 19:28:55;;;;;;;16.15;3.17;;;20.10;99.90;;;;;;4988695;28;20066;-66
2022/07/13 19:31:21;;;;;;;13.18;2.95;;;19.90;99.90;;;;;;5002049;28;20062;-66
2022/07/13 19:33:47;;;;;;;13.65;3.20;;;19.80;99.90;;;;;;4999500;28;20034;-67
2022/07/13 19:36:13;;;;;;;11.38;3.00;;;19.70;99.90;;;;;;4990108;28;20030;-66
2022/07/13 19:38:38;;;;;;;13.85;3.40;;;19.60;99.90;;;;;;5007522;28;20041;-66
2022/07/13 19:41:04;;;;;;;12.38;3.05;;;19.50;99.90;;;;;;5004640;28;20037;-66
2022/07/13 19:43:30;;;;;;;8.73;2.75;;;19.40;99.90;;;;;;4988215;28;20133;-68
2022/07/13 19:45:55;;;;;;;10.60;2.83;;;19.30;99.90;;;;;;4996692;28;20037;-66
2022/07/13 19:48:22;;;;;;;13.13;3.40;;;19.10;99.90;;;;;;5005278;28;20037;-66
2022/07/13 19:50:48;;;;;;;11.20;3.20;;;19.00;99.90;;;;;;5001683;28;20034;-66
2022/07/13 19:53:15;;;;;;;11.48;2.95;;;18.90;99.90;;;;;;4980909;28;20034;-66
2022/07/13 19:55:40;;;;;;;12.82;3.22;;;18.80;99.90;;;;;;5007262;28;20034;-66
2022/07/13 19:58:06;;;;;;;13.82;3.03;;;18.70;99.90;;;;;;4996628;28;20189;-66
2022/07/13 20:00:34;;;;;;;11.27;2.60;;;18.60;99.90;;;;;;4987520;28;20514;-66
2022/07/13 20:02:59;;;;;;;12.23;3.03;;;18.60;99.90;;;;;;4991656;28;20065;-66
2022/07/13 20:05:25;;;;;;;10.45;3.20;;;18.60;99.90;;;;;;5010602;28;20073;-66
2022/07/13 20:07:51;;;;;;;12.23;2.88;;;18.50;99.90;;;;;;4981210;28;20049;-66
2022/07/13 20:10:17;;;;;;;12.00;3.10;;;18.40;99.90;;;;;;4997700;28;20448;-66
2022/07/13 20:12:46;;;;;;;11.90;3.08;;;18.30;99.90;;;;;;5010292;28;20120;-66
2022/07/13 20:15:12;;;;;;;12.05;2.90;;;18.20;99.90;;;;;;5010303;28;20037;-66
2022/07/13 20:17:38;;;;;;;12.38;2.72;;;18.10;99.90;;;;;;4990625;28;20054;-66
2022/07/13 20:20:07;;;;;;;9.88;2.67;;;18.10;99.90;;;;;;5006027;28;20038;-65
2022/07/13 20:22:32;;;;;;;13.27;3.15;;;18.00;99.90;;;;;;4992839;28;20116;-66
2022/07/13 20:24:59;;;;;;;10.50;2.97;;;17.90;99.90;;;;;;4998836;28;20620;-66
2022/07/13 20:27:25;;;;;;;14.82;3.75;;;17.80;99.90;;;;;;4999025;28;20077;-66
2022/07/13 20:29:51;;;;;;;15.85;3.30;;;17.80;99.90;;;;;;5010441;28;20125;-66
2022/07/13 20:32:17;;;;;;;11.35;3.05;;;17.70;99.90;;;;;;5010597;28;20059;-66
2022/07/13 20:34:43;;;;;;;9.50;3.03;;;17.70;99.90;;;;;;4993571;28;20066;-66
2022/07/13 20:37:08;;;;;;;13.38;3.10;;;17.60;99.90;;;;;;4996792;28;20030;-66
2022/07/13 20:39:34;;;;;;;16.85;3.65;;;17.60;99.90;;;;;;5010291;28;20108;-66
2022/07/13 20:42:00;;;;;;;12.95;2.95;;;17.50;99.90;;;;;;4989481;28;20027;-66
2022/07/13 20:49:36;;;;;;;11.73;3.15;;;17.40;99.90;;;;;;5414060;23;20048;-67
2022/07/13 20:52:03;;;;;;;17.35;3.28;;;17.30;99.90;;;;;;4914766;29;20050;-66
2022/07/13 20:54:28;;;;;;;13.35;3.17;;;17.30;99.90;;;;;;4915576;29;20062;-66
2022/07/13 21:05:12;;;;;;;14.93;2.97;;;17.10;99.90;;;;;;5250262;23;20059;-68
2022/07/13 21:07:38;;;;;;;18.45;3.30;;;17.10;99.90;;;;;;4932686;29;20035;-68
2022/07/13 21:12:39;;;;;;;12.23;3.05;;;17.00;99.90;;;;;;5542166;23;20059;-66
2022/07/13 21:15:05;;;;;;;14.25;2.95;;;17.00;99.90;;;;;;4944556;28;20035;-65
2022/07/13 21:17:31;;;;;;;9.77;2.90;;;16.90;99.90;;;;;;4930552;28;20054;-65
2022/07/13 21:19:56;;;;;;;14.30;3.03;;;16.90;99.90;;;;;;5225740;23;20039;-66